sensor_id;sensor_type;location;lat;lon;timestamp;P1;durP1;ratioP1;P2;durP2;ratioP2
33367;SDS011;19724;51.114;13.906;2023-04-08T00:00:20;125.53;;;41.78;;
33367;SDS011;19724;51.114;13.906;2023-04-08T00:02:45;53.40;;;29.48;;
33367;SDS011;19724;51.114;13.906;2023-04-08T00:05:11;88.85;;;37.50;;
33367;SDS011;19724;51.114;13.906;2023-04-08T00:07:36;79.85;;;32.15;;
33367;SDS011;19724;51.114;13.906;2023-04-08T00:10:02;71.20;;;32.42;;
33367;SDS011;19724;51.114;13.906;2023-04-08T00:12:28;82.90;;;34.00;;
33367;SDS011;19724;51.114;13.906;2023-04-08T00:14:54;65.82;;;31.15;;
33367;SDS011;19724;51.114;13.906;2023-04-08T00:17:19;94.85;;;38.20;;
33367;SDS011;19724;51.114;13.906;2023-04-08T00:19:45;89.03;;;37.47;;
33367;SDS011;19724;51.114;13.906;2023-04-08T00:22:10;128.68;;;45.83;;
33367;SDS011;19724;51.114;13.906;2023-04-08T00:24:36;85.57;;;34.75;;
33367;SDS011;19724;51.114;13.906;2023-04-08T00:27:02;78.00;;;34.47;;
33367;SDS011;19724;51.114;13.906;2023-04-08T00:29:28;87.03;;;35.40;;
33367;SDS011;19724;51.114;13.906;2023-04-08T00:31:53;91.65;;;38.20;;
33367;SDS011;19724;51.114;13.906;2023-04-08T00:34:19;80.25;;;36.08;;
33367;SDS011;19724;51.114;13.906;2023-04-08T00:36:45;167.73;;;46.25;;
33367;SDS011;19724;51.114;13.906;2023-04-08T00:39:13;146.35;;;43.22;;
33367;SDS011;19724;51.114;13.906;2023-04-08T00:41:39;107.82;;;43.85;;
33367;SDS011;19724;51.114;13.906;2023-04-08T00:44:04;150.65;;;45.85;;
33367;SDS011;19724;51.114;13.906;2023-04-08T00:46:31;93.60;;;37.72;;
33367;SDS011;19724;51.114;13.906;2023-04-08T00:49:00;98.95;;;37.65;;
33367;SDS011;19724;51.114;13.906;2023-04-08T00:51:27;259.83;;;55.75;;
33367;SDS011;19724;51.114;13.906;2023-04-08T00:53:53;110.82;;;38.75;;
33367;SDS011;19724;51.114;13.906;2023-04-08T00:56:19;481.80;;;99.25;;
33367;SDS011;19724;51.114;13.906;2023-04-08T00:58:45;183.43;;;51.35;;
33367;SDS011;19724;51.114;13.906;2023-04-08T01:01:13;170.63;;;48.35;;
33367;SDS011;19724;51.114;13.906;2023-04-08T01:03:49;123.75;;;39.40;;
33367;SDS011;19724;51.114;13.906;2023-04-08T01:06:28;135.40;;;40.15;;
33367;SDS011;19724;51.114;13.906;2023-04-08T01:09:03;206.70;;;56.75;;
33367;SDS011;19724;51.114;13.906;2023-04-08T01:11:30;136.20;;;43.33;;
33367;SDS011;19724;51.114;13.906;2023-04-08T01:13:58;145.15;;;41.83;;
33367;SDS011;19724;51.114;13.906;2023-04-08T01:16:25;89.68;;;36.40;;
33367;SDS011;19724;51.114;13.906;2023-04-08T01:18:51;149.75;;;44.45;;
33367;SDS011;19724;51.114;13.906;2023-04-08T01:21:18;98.32;;;34.50;;
33367;SDS011;19724;51.114;13.906;2023-04-08T01:26:26;93.75;;;35.80;;
33367;SDS011;19724;51.114;13.906;2023-04-08T01:28:55;115.13;;;37.38;;
33367;SDS011;19724;51.114;13.906;2023-04-08T01:31:23;64.53;;;30.35;;
33367;SDS011;19724;51.114;13.906;2023-04-08T01:33:50;70.80;;;30.98;;
33367;SDS011;19724;51.114;13.906;2023-04-08T01:36:16;68.13;;;27.27;;
33367;SDS011;19724;51.114;13.906;2023-04-08T01:38:44;100.93;;;33.08;;
33367;SDS011;19724;51.114;13.906;2023-04-08T01:41:10;66.00;;;28.13;;
33367;SDS011;19724;51.114;13.906;2023-04-08T01:43:38;74.18;;;28.77;;
33367;SDS011;19724;51.114;13.906;2023-04-08T01:46:04;87.28;;;27.08;;
33367;SDS011;19724;51.114;13.906;2023-04-08T01:48:32;115.95;;;35.50;;
33367;SDS011;19724;51.114;13.906;2023-04-08T01:50:58;86.68;;;27.13;;
33367;SDS011;19724;51.114;13.906;2023-04-08T01:53:24;57.53;;;26.13;;
33367;SDS011;19724;51.114;13.906;2023-04-08T01:55:51;66.55;;;26.75;;
33367;SDS011;19724;51.114;13.906;2023-04-08T01:58:21;62.75;;;25.63;;
33367;SDS011;19724;51.114;13.906;2023-04-08T02:00:51;77.28;;;25.92;;
33367;SDS011;19724;51.114;13.906;2023-04-08T02:03:18;55.90;;;23.42;;
33367;SDS011;19724;51.114;13.906;2023-04-08T02:05:47;60.15;;;24.05;;
33367;SDS011;19724;51.114;13.906;2023-04-08T02:08:13;49.42;;;23.05;;
33367;SDS011;19724;51.114;13.906;2023-04-08T02:10:38;56.75;;;20.70;;
33367;SDS011;19724;51.114;13.906;2023-04-08T02:13:04;71.20;;;24.95;;
33367;SDS011;19724;51.114;13.906;2023-04-08T02:15:33;67.32;;;25.02;;
33367;SDS011;19724;51.114;13.906;2023-04-08T02:18:04;49.55;;;20.40;;
33367;SDS011;19724;51.114;13.906;2023-04-08T02:20:37;55.78;;;21.02;;
33367;SDS011;19724;51.114;13.906;2023-04-08T02:23:14;43.63;;;20.77;;
33367;SDS011;19724;51.114;13.906;2023-04-08T02:25:46;43.90;;;19.20;;
33367;SDS011;19724;51.114;13.906;2023-04-08T02:28:12;74.13;;;20.63;;
33367;SDS011;19724;51.114;13.906;2023-04-08T02:30:44;41.83;;;19.55;;
33367;SDS011;19724;51.114;13.906;2023-04-08T02:33:13;41.83;;;18.17;;
33367;SDS011;19724;51.114;13.906;2023-04-08T02:35:42;44.72;;;19.27;;
33367;SDS011;19724;51.114;13.906;2023-04-08T02:38:09;44.33;;;17.73;;
33367;SDS011;19724;51.114;13.906;2023-04-08T02:40:35;40.42;;;17.42;;
33367;SDS011;19724;51.114;13.906;2023-04-08T02:43:01;41.67;;;18.38;;
33367;SDS011;19724;51.114;13.906;2023-04-08T02:45:27;38.95;;;18.77;;
33367;SDS011;19724;51.114;13.906;2023-04-08T02:47:55;48.13;;;17.70;;
33367;SDS011;19724;51.114;13.906;2023-04-08T02:50:20;44.15;;;20.15;;
33367;SDS011;19724;51.114;13.906;2023-04-08T02:52:46;35.17;;;16.90;;
33367;SDS011;19724;51.114;13.906;2023-04-08T02:55:11;40.22;;;17.45;;
33367;SDS011;19724;51.114;13.906;2023-04-08T02:57:41;42.40;;;15.93;;
33367;SDS011;19724;51.114;13.906;2023-04-08T03:00:07;35.90;;;14.43;;
33367;SDS011;19724;51.114;13.906;2023-04-08T03:02:33;37.88;;;15.10;;
33367;SDS011;19724;51.114;13.906;2023-04-08T03:04:59;37.67;;;15.48;;
33367;SDS011;19724;51.114;13.906;2023-04-08T03:07:25;31.80;;;13.40;;
33367;SDS011;19724;51.114;13.906;2023-04-08T03:09:50;25.27;;;13.25;;
33367;SDS011;19724;51.114;13.906;2023-04-08T03:12:16;32.10;;;13.32;;
33367;SDS011;19724;51.114;13.906;2023-04-08T03:14:42;39.22;;;14.52;;
33367;SDS011;19724;51.114;13.906;2023-04-08T03:17:07;34.17;;;15.13;;
33367;SDS011;19724;51.114;13.906;2023-04-08T03:19:33;32.38;;;13.90;;
33367;SDS011;19724;51.114;13.906;2023-04-08T03:21:58;30.52;;;14.38;;
33367;SDS011;19724;51.114;13.906;2023-04-08T03:24:24;32.30;;;14.90;;
33367;SDS011;19724;51.114;13.906;2023-04-08T03:26:49;39.97;;;14.98;;
33367;SDS011;19724;51.114;13.906;2023-04-08T03:29:15;29.92;;;13.85;;
33367;SDS011;19724;51.114;13.906;2023-04-08T03:31:40;27.95;;;11.80;;
33367;SDS011;19724;51.114;13.906;2023-04-08T03:34:06;32.33;;;12.38;;
33367;SDS011;19724;51.114;13.906;2023-04-08T03:36:31;32.33;;;13.48;;
33367;SDS011;19724;51.114;13.906;2023-04-08T03:38:57;36.50;;;13.13;;
33367;SDS011;19724;51.114;13.906;2023-04-08T03:41:22;37.75;;;14.35;;
33367;SDS011;19724;51.114;13.906;2023-04-08T03:43:47;35.90;;;15.75;;
33367;SDS011;19724;51.114;13.906;2023-04-08T03:46:13;28.45;;;13.85;;
33367;SDS011;19724;51.114;13.906;2023-04-08T03:48:38;38.00;;;14.73;;
33367;SDS011;19724;51.114;13.906;2023-04-08T03:51:04;46.53;;;15.48;;
33367;SDS011;19724;51.114;13.906;2023-04-08T03:53:30;36.67;;;15.23;;
33367;SDS011;19724;51.114;13.906;2023-04-08T03:55:56;37.92;;;14.82;;
33367;SDS011;19724;51.114;13.906;2023-04-08T03:58:21;40.20;;;14.65;;
33367;SDS011;19724;51.114;13.906;2023-04-08T04:00:47;29.35;;;13.23;;
33367;SDS011;19724;51.114;13.906;2023-04-08T04:03:13;33.97;;;14.20;;
33367;SDS011;19724;51.114;13.906;2023-04-08T04:05:39;34.80;;;14.95;;
33367;SDS011;19724;51.114;13.906;2023-04-08T04:08:04;39.20;;;15.13;;
33367;SDS011;19724;51.114;13.906;2023-04-08T04:10:30;35.72;;;14.52;;
33367;SDS011;19724;51.114;13.906;2023-04-08T04:12:56;38.72;;;14.77;;
33367;SDS011;19724;51.114;13.906;2023-04-08T04:15:21;56.30;;;15.27;;
33367;SDS011;19724;51.114;13.906;2023-04-08T04:17:47;51.45;;;17.20;;
33367;SDS011;19724;51.114;13.906;2023-04-08T04:20:14;30.50;;;13.38;;
33367;SDS011;19724;51.114;13.906;2023-04-08T04:22:39;44.17;;;15.82;;
33367;SDS011;19724;51.114;13.906;2023-04-08T04:25:05;31.15;;;14.05;;
33367;SDS011;19724;51.114;13.906;2023-04-08T04:27:31;37.60;;;14.27;;
33367;SDS011;19724;51.114;13.906;2023-04-08T04:29:56;39.00;;;16.42;;
33367;SDS011;19724;51.114;13.906;2023-04-08T04:32:22;40.25;;;14.27;;
33367;SDS011;19724;51.114;13.906;2023-04-08T04:34:47;45.83;;;18.05;;
33367;SDS011;19724;51.114;13.906;2023-04-08T04:37:13;37.30;;;15.50;;
33367;SDS011;19724;51.114;13.906;2023-04-08T04:39:38;41.00;;;15.75;;
33367;SDS011;19724;51.114;13.906;2023-04-08T04:42:03;51.10;;;15.55;;
33367;SDS011;19724;51.114;13.906;2023-04-08T04:44:30;31.65;;;13.38;;
33367;SDS011;19724;51.114;13.906;2023-04-08T04:46:55;36.85;;;16.45;;
33367;SDS011;19724;51.114;13.906;2023-04-08T04:49:22;39.47;;;14.23;;
33367;SDS011;19724;51.114;13.906;2023-04-08T04:51:47;29.73;;;12.13;;
33367;SDS011;19724;51.114;13.906;2023-04-08T04:54:13;42.78;;;14.90;;
33367;SDS011;19724;51.114;13.906;2023-04-08T04:56:39;32.05;;;13.10;;
33367;SDS011;19724;51.114;13.906;2023-04-08T04:59:04;28.63;;;12.20;;
33367;SDS011;19724;51.114;13.906;2023-04-08T05:01:30;26.92;;;12.10;;
33367;SDS011;19724;51.114;13.906;2023-04-08T05:03:56;30.13;;;12.35;;
33367;SDS011;19724;51.114;13.906;2023-04-08T05:06:24;28.65;;;11.18;;
33367;SDS011;19724;51.114;13.906;2023-04-08T05:08:51;28.17;;;12.40;;
33367;SDS011;19724;51.114;13.906;2023-04-08T05:11:16;33.30;;;12.00;;
33367;SDS011;19724;51.114;13.906;2023-04-08T05:13:42;34.97;;;13.73;;
33367;SDS011;19724;51.114;13.906;2023-04-08T05:16:08;36.22;;;11.82;;
33367;SDS011;19724;51.114;13.906;2023-04-08T05:18:33;30.45;;;11.82;;
33367;SDS011;19724;51.114;13.906;2023-04-08T05:20:59;30.75;;;13.93;;
33367;SDS011;19724;51.114;13.906;2023-04-08T05:23:24;31.02;;;12.95;;
33367;SDS011;19724;51.114;13.906;2023-04-08T05:25:50;35.17;;;14.02;;
33367;SDS011;19724;51.114;13.906;2023-04-08T05:28:15;40.80;;;13.80;;
33367;SDS011;19724;51.114;13.906;2023-04-08T05:30:41;43.58;;;14.32;;
33367;SDS011;19724;51.114;13.906;2023-04-08T05:33:06;38.80;;;12.93;;
33367;SDS011;19724;51.114;13.906;2023-04-08T05:35:32;32.63;;;14.02;;
33367;SDS011;19724;51.114;13.906;2023-04-08T05:37:57;50.78;;;15.70;;
33367;SDS011;19724;51.114;13.906;2023-04-08T05:40:23;41.50;;;13.95;;
33367;SDS011;19724;51.114;13.906;2023-04-08T05:42:48;47.08;;;14.27;;
33367;SDS011;19724;51.114;13.906;2023-04-08T05:45:14;54.78;;;15.55;;
33367;SDS011;19724;51.114;13.906;2023-04-08T05:47:40;32.63;;;15.90;;
33367;SDS011;19724;51.114;13.906;2023-04-08T05:50:05;33.00;;;13.90;;
33367;SDS011;19724;51.114;13.906;2023-04-08T05:52:31;32.53;;;13.77;;
33367;SDS011;19724;51.114;13.906;2023-04-08T05:54:57;37.10;;;14.90;;
33367;SDS011;19724;51.114;13.906;2023-04-08T05:57:22;32.85;;;13.13;;
33367;SDS011;19724;51.114;13.906;2023-04-08T05:59:48;30.60;;;12.77;;
33367;SDS011;19724;51.114;13.906;2023-04-08T06:02:13;34.85;;;14.77;;
33367;SDS011;19724;51.114;13.906;2023-04-08T06:04:39;38.72;;;15.68;;
33367;SDS011;19724;51.114;13.906;2023-04-08T06:07:04;37.92;;;13.25;;
33367;SDS011;19724;51.114;13.906;2023-04-08T06:09:35;30.42;;;13.18;;
33367;SDS011;19724;51.114;13.906;2023-04-08T06:12:01;48.90;;;19.00;;
33367;SDS011;19724;51.114;13.906;2023-04-08T06:14:27;47.42;;;18.85;;
33367;SDS011;19724;51.114;13.906;2023-04-08T06:16:52;52.63;;;20.77;;
33367;SDS011;19724;51.114;13.906;2023-04-08T06:19:18;59.10;;;20.65;;
33367;SDS011;19724;51.114;13.906;2023-04-08T06:21:44;61.40;;;23.80;;
33367;SDS011;19724;51.114;13.906;2023-04-08T06:24:09;97.53;;;27.15;;
33367;SDS011;19724;51.114;13.906;2023-04-08T06:26:35;68.35;;;23.65;;
33367;SDS011;19724;51.114;13.906;2023-04-08T06:29:00;87.10;;;28.63;;
33367;SDS011;19724;51.114;13.906;2023-04-08T06:31:27;67.00;;;26.42;;
33367;SDS011;19724;51.114;13.906;2023-04-08T06:33:52;83.75;;;29.55;;
33367;SDS011;19724;51.114;13.906;2023-04-08T06:36:18;65.72;;;28.80;;
33367;SDS011;19724;51.114;13.906;2023-04-08T06:38:43;81.93;;;31.20;;
33367;SDS011;19724;51.114;13.906;2023-04-08T06:41:08;85.55;;;34.45;;
33367;SDS011;19724;51.114;13.906;2023-04-08T06:43:34;82.93;;;33.45;;
33367;SDS011;19724;51.114;13.906;2023-04-08T06:46:01;60.70;;;30.23;;
33367;SDS011;19724;51.114;13.906;2023-04-08T06:48:27;78.13;;;30.67;;
33367;SDS011;19724;51.114;13.906;2023-04-08T06:50:54;72.57;;;34.53;;
33367;SDS011;19724;51.114;13.906;2023-04-08T06:53:21;80.82;;;33.00;;
33367;SDS011;19724;51.114;13.906;2023-04-08T06:55:48;67.60;;;30.98;;
33367;SDS011;19724;51.114;13.906;2023-04-08T06:58:13;66.28;;;29.98;;
33367;SDS011;19724;51.114;13.906;2023-04-08T07:00:39;64.45;;;29.80;;
33367;SDS011;19724;51.114;13.906;2023-04-08T07:03:06;55.03;;;28.70;;
33367;SDS011;19724;51.114;13.906;2023-04-08T07:05:31;63.13;;;31.05;;
33367;SDS011;19724;51.114;13.906;2023-04-08T07:08:00;54.42;;;26.60;;
33367;SDS011;19724;51.114;13.906;2023-04-08T07:10:26;44.25;;;24.48;;
33367;SDS011;19724;51.114;13.906;2023-04-08T07:12:52;44.95;;;23.85;;
33367;SDS011;19724;51.114;13.906;2023-04-08T07:15:18;39.08;;;22.20;;
33367;SDS011;19724;51.114;13.906;2023-04-08T07:17:44;30.58;;;17.63;;
33367;SDS011;19724;51.114;13.906;2023-04-08T07:20:10;27.52;;;17.38;;
33367;SDS011;19724;51.114;13.906;2023-04-08T07:22:36;31.05;;;17.17;;
33367;SDS011;19724;51.114;13.906;2023-04-08T07:25:01;29.92;;;17.27;;
33367;SDS011;19724;51.114;13.906;2023-04-08T07:27:27;28.45;;;18.00;;
33367;SDS011;19724;51.114;13.906;2023-04-08T07:29:52;31.42;;;18.58;;
33367;SDS011;19724;51.114;13.906;2023-04-08T07:32:18;27.83;;;15.93;;
33367;SDS011;19724;51.114;13.906;2023-04-08T07:34:44;27.23;;;16.42;;
33367;SDS011;19724;51.114;13.906;2023-04-08T07:37:10;29.85;;;16.67;;
33367;SDS011;19724;51.114;13.906;2023-04-08T07:39:35;25.20;;;15.60;;
33367;SDS011;19724;51.114;13.906;2023-04-08T07:42:01;28.77;;;17.77;;
33367;SDS011;19724;51.114;13.906;2023-04-08T07:44:26;27.60;;;15.55;;
33367;SDS011;19724;51.114;13.906;2023-04-08T07:46:52;23.27;;;14.20;;
33367;SDS011;19724;51.114;13.906;2023-04-08T07:49:17;22.85;;;13.68;;
33367;SDS011;19724;51.114;13.906;2023-04-08T07:51:43;21.88;;;15.00;;
33367;SDS011;19724;51.114;13.906;2023-04-08T07:54:08;23.80;;;14.15;;
33367;SDS011;19724;51.114;13.906;2023-04-08T07:56:41;23.73;;;14.98;;
33367;SDS011;19724;51.114;13.906;2023-04-08T07:59:08;22.45;;;14.80;;
33367;SDS011;19724;51.114;13.906;2023-04-08T08:01:37;24.00;;;15.05;;
33367;SDS011;19724;51.114;13.906;2023-04-08T08:04:02;21.52;;;15.35;;
33367;SDS011;19724;51.114;13.906;2023-04-08T08:06:28;18.85;;;12.30;;
33367;SDS011;19724;51.114;13.906;2023-04-08T08:08:56;23.73;;;13.82;;
33367;SDS011;19724;51.114;13.906;2023-04-08T08:11:21;20.65;;;13.63;;
33367;SDS011;19724;51.114;13.906;2023-04-08T08:13:47;20.85;;;12.65;;
33367;SDS011;19724;51.114;13.906;2023-04-08T08:16:12;19.73;;;12.65;;
33367;SDS011;19724;51.114;13.906;2023-04-08T08:18:38;20.90;;;14.25;;
33367;SDS011;19724;51.114;13.906;2023-04-08T08:21:04;19.45;;;13.70;;
33367;SDS011;19724;51.114;13.906;2023-04-08T08:23:30;20.30;;;14.27;;
33367;SDS011;19724;51.114;13.906;2023-04-08T08:26:02;19.58;;;13.80;;
33367;SDS011;19724;51.114;13.906;2023-04-08T08:28:30;17.75;;;10.98;;
33367;SDS011;19724;51.114;13.906;2023-04-08T08:30:56;24.55;;;15.65;;
33367;SDS011;19724;51.114;13.906;2023-04-08T08:33:22;20.20;;;13.82;;
33367;SDS011;19724;51.114;13.906;2023-04-08T08:35:49;21.98;;;15.27;;
33367;SDS011;19724;51.114;13.906;2023-04-08T08:38:14;22.40;;;15.38;;
33367;SDS011;19724;51.114;13.906;2023-04-08T08:40:41;22.77;;;15.70;;
33367;SDS011;19724;51.114;13.906;2023-04-08T08:43:08;23.35;;;14.35;;
33367;SDS011;19724;51.114;13.906;2023-04-08T08:45:37;22.55;;;15.95;;
33367;SDS011;19724;51.114;13.906;2023-04-08T08:48:06;24.60;;;16.20;;
33367;SDS011;19724;51.114;13.906;2023-04-08T08:50:32;25.77;;;14.88;;
33367;SDS011;19724;51.114;13.906;2023-04-08T08:52:58;26.42;;;17.85;;
33367;SDS011;19724;51.114;13.906;2023-04-08T08:55:24;21.35;;;15.00;;
33367;SDS011;19724;51.114;13.906;2023-04-08T08:57:50;26.27;;;15.95;;
33367;SDS011;19724;51.114;13.906;2023-04-08T09:00:15;24.40;;;16.25;;
33367;SDS011;19724;51.114;13.906;2023-04-08T09:02:41;24.33;;;15.80;;
33367;SDS011;19724;51.114;13.906;2023-04-08T09:05:07;23.05;;;15.25;;
33367;SDS011;19724;51.114;13.906;2023-04-08T09:07:34;21.48;;;14.27;;
33367;SDS011;19724;51.114;13.906;2023-04-08T09:10:01;23.10;;;15.30;;
33367;SDS011;19724;51.114;13.906;2023-04-08T09:12:28;24.10;;;16.63;;
33367;SDS011;19724;51.114;13.906;2023-04-08T09:15:04;24.90;;;14.82;;
33367;SDS011;19724;51.114;13.906;2023-04-08T09:17:35;27.45;;;17.00;;
33367;SDS011;19724;51.114;13.906;2023-04-08T09:20:03;24.73;;;15.23;;
33367;SDS011;19724;51.114;13.906;2023-04-08T09:22:33;23.67;;;14.55;;
33367;SDS011;19724;51.114;13.906;2023-04-08T09:25:22;22.48;;;15.38;;
33367;SDS011;19724;51.114;13.906;2023-04-08T09:27:51;23.70;;;15.07;;
33367;SDS011;19724;51.114;13.906;2023-04-08T09:30:18;24.55;;;15.82;;
33367;SDS011;19724;51.114;13.906;2023-04-08T09:32:48;28.17;;;16.73;;
33367;SDS011;19724;51.114;13.906;2023-04-08T09:35:20;23.25;;;15.93;;
33367;SDS011;19724;51.114;13.906;2023-04-08T09:37:46;22.58;;;14.77;;
33367;SDS011;19724;51.114;13.906;2023-04-08T09:40:12;24.27;;;16.48;;
33367;SDS011;19724;51.114;13.906;2023-04-08T09:42:40;23.58;;;15.13;;
33367;SDS011;19724;51.114;13.906;2023-04-08T09:45:09;22.45;;;14.20;;
33367;SDS011;19724;51.114;13.906;2023-04-08T09:47:41;24.02;;;15.15;;
33367;SDS011;19724;51.114;13.906;2023-04-08T09:50:23;20.85;;;13.90;;
33367;SDS011;19724;51.114;13.906;2023-04-08T09:52:52;24.70;;;15.45;;
33367;SDS011;19724;51.114;13.906;2023-04-08T09:55:25;19.75;;;13.85;;
33367;SDS011;19724;51.114;13.906;2023-04-08T09:57:55;21.90;;;14.27;;
33367;SDS011;19724;51.114;13.906;2023-04-08T10:00:29;19.95;;;13.85;;
33367;SDS011;19724;51.114;13.906;2023-04-08T10:05:45;21.45;;;14.15;;
33367;SDS011;19724;51.114;13.906;2023-04-08T10:08:12;21.63;;;14.52;;
33367;SDS011;19724;51.114;13.906;2023-04-08T10:10:39;21.70;;;13.57;;
33367;SDS011;19724;51.114;13.906;2023-04-08T10:13:06;20.45;;;13.52;;
33367;SDS011;19724;51.114;13.906;2023-04-08T10:15:32;16.55;;;11.45;;
33367;SDS011;19724;51.114;13.906;2023-04-08T10:23:00;18.67;;;11.30;;
33367;SDS011;19724;51.114;13.906;2023-04-08T10:25:27;18.80;;;12.82;;
33367;SDS011;19724;51.114;13.906;2023-04-08T10:27:54;19.38;;;12.30;;
33367;SDS011;19724;51.114;13.906;2023-04-08T10:32:57;19.90;;;13.65;;
33367;SDS011;19724;51.114;13.906;2023-04-08T10:35:30;20.25;;;12.00;;
33367;SDS011;19724;51.114;13.906;2023-04-08T10:37:59;20.08;;;13.15;;
33367;SDS011;19724;51.114;13.906;2023-04-08T10:40:25;21.67;;;12.90;;
33367;SDS011;19724;51.114;13.906;2023-04-08T10:42:54;20.30;;;13.73;;
33367;SDS011;19724;51.114;13.906;2023-04-08T10:45:20;20.23;;;13.18;;
33367;SDS011;19724;51.114;13.906;2023-04-08T10:47:46;22.80;;;13.60;;
33367;SDS011;19724;51.114;13.906;2023-04-08T10:50:12;22.67;;;14.30;;
33367;SDS011;19724;51.114;13.906;2023-04-08T10:52:49;23.60;;;14.50;;
33367;SDS011;19724;51.114;13.906;2023-04-08T10:55:25;23.27;;;14.23;;
33367;SDS011;19724;51.114;13.906;2023-04-08T10:57:51;22.65;;;14.18;;
33367;SDS011;19724;51.114;13.906;2023-04-08T11:00:18;24.77;;;14.98;;
33367;SDS011;19724;51.114;13.906;2023-04-08T11:02:59;20.15;;;13.13;;
33367;SDS011;19724;51.114;13.906;2023-04-08T11:05:25;22.15;;;14.25;;
33367;SDS011;19724;51.114;13.906;2023-04-08T11:07:51;23.60;;;15.10;;
33367;SDS011;19724;51.114;13.906;2023-04-08T11:10:17;22.50;;;14.77;;
33367;SDS011;19724;51.114;13.906;2023-04-08T11:12:43;22.95;;;14.75;;
33367;SDS011;19724;51.114;13.906;2023-04-08T11:15:08;23.33;;;15.65;;
33367;SDS011;19724;51.114;13.906;2023-04-08T11:17:34;26.48;;;17.27;;
33367;SDS011;19724;51.114;13.906;2023-04-08T11:20:01;27.45;;;18.55;;
33367;SDS011;19724;51.114;13.906;2023-04-08T11:22:30;28.48;;;19.58;;
33367;SDS011;19724;51.114;13.906;2023-04-08T11:24:57;29.17;;;19.85;;
33367;SDS011;19724;51.114;13.906;2023-04-08T11:27:23;29.60;;;19.50;;
33367;SDS011;19724;51.114;13.906;2023-04-08T11:29:50;32.33;;;18.90;;
33367;SDS011;19724;51.114;13.906;2023-04-08T11:32:17;31.25;;;19.10;;
33367;SDS011;19724;51.114;13.906;2023-04-08T11:34:43;31.10;;;20.20;;
33367;SDS011;19724;51.114;13.906;2023-04-08T11:37:11;27.63;;;19.42;;
33367;SDS011;19724;51.114;13.906;2023-04-08T11:39:43;28.70;;;20.65;;
33367;SDS011;19724;51.114;13.906;2023-04-08T11:42:24;31.65;;;21.70;;
33367;SDS011;19724;51.114;13.906;2023-04-08T11:44:50;32.22;;;20.63;;
33367;SDS011;19724;51.114;13.906;2023-04-08T11:47:16;28.70;;;20.20;;
33367;SDS011;19724;51.114;13.906;2023-04-08T11:49:45;32.22;;;21.77;;
33367;SDS011;19724;51.114;13.906;2023-04-08T11:52:11;33.72;;;21.58;;
33367;SDS011;19724;51.114;13.906;2023-04-08T11:54:39;34.03;;;22.40;;
33367;SDS011;19724;51.114;13.906;2023-04-08T11:57:06;34.25;;;22.55;;
33367;SDS011;19724;51.114;13.906;2023-04-08T11:59:34;33.03;;;21.63;;
33367;SDS011;19724;51.114;13.906;2023-04-08T12:02:00;35.17;;;22.08;;
33367;SDS011;19724;51.114;13.906;2023-04-08T12:04:26;36.40;;;23.20;;
33367;SDS011;19724;51.114;13.906;2023-04-08T12:06:52;37.10;;;22.65;;
33367;SDS011;19724;51.114;13.906;2023-04-08T12:09:17;40.03;;;25.40;;
33367;SDS011;19724;51.114;13.906;2023-04-08T12:11:43;38.70;;;23.42;;
33367;SDS011;19724;51.114;13.906;2023-04-08T12:14:08;38.80;;;22.20;;
33367;SDS011;19724;51.114;13.906;2023-04-08T12:16:34;36.00;;;22.38;;
33367;SDS011;19724;51.114;13.906;2023-04-08T12:19:00;37.75;;;21.75;;
33367;SDS011;19724;51.114;13.906;2023-04-08T12:21:25;36.90;;;21.65;;
33367;SDS011;19724;51.114;13.906;2023-04-08T12:23:51;30.95;;;20.08;;
33367;SDS011;19724;51.114;13.906;2023-04-08T12:26:17;30.30;;;20.33;;
33367;SDS011;19724;51.114;13.906;2023-04-08T12:28:45;36.70;;;20.70;;
33367;SDS011;19724;51.114;13.906;2023-04-08T12:31:10;29.83;;;20.27;;
33367;SDS011;19724;51.114;13.906;2023-04-08T12:33:36;29.27;;;19.90;;
33367;SDS011;19724;51.114;13.906;2023-04-08T12:36:02;31.05;;;20.55;;
33367;SDS011;19724;51.114;13.906;2023-04-08T12:38:27;30.17;;;19.13;;
33367;SDS011;19724;51.114;13.906;2023-04-08T12:40:53;30.75;;;18.35;;
33367;SDS011;19724;51.114;13.906;2023-04-08T12:43:19;28.70;;;19.35;;
33367;SDS011;19724;51.114;13.906;2023-04-08T12:45:45;32.22;;;20.05;;
33367;SDS011;19724;51.114;13.906;2023-04-08T12:48:12;31.95;;;21.33;;
33367;SDS011;19724;51.114;13.906;2023-04-08T12:50:38;32.33;;;20.55;;
33367;SDS011;19724;51.114;13.906;2023-04-08T12:53:03;37.92;;;21.73;;
33367;SDS011;19724;51.114;13.906;2023-04-08T12:55:29;31.08;;;20.48;;
33367;SDS011;19724;51.114;13.906;2023-04-08T12:57:54;35.03;;;23.55;;
33367;SDS011;19724;51.114;13.906;2023-04-08T13:00:20;31.70;;;20.77;;
33367;SDS011;19724;51.114;13.906;2023-04-08T13:02:46;29.80;;;19.13;;
33367;SDS011;19724;51.114;13.906;2023-04-08T13:05:11;28.92;;;19.80;;
33367;SDS011;19724;51.114;13.906;2023-04-08T13:07:37;30.98;;;21.33;;
33367;SDS011;19724;51.114;13.906;2023-04-08T13:10:04;30.67;;;18.90;;
33367;SDS011;19724;51.114;13.906;2023-04-08T13:12:31;26.88;;;18.67;;
33367;SDS011;19724;51.114;13.906;2023-04-08T13:14:56;28.63;;;19.55;;
33367;SDS011;19724;51.114;13.906;2023-04-08T13:17:22;28.85;;;19.98;;
33367;SDS011;19724;51.114;13.906;2023-04-08T13:19:48;27.95;;;18.48;;
33367;SDS011;19724;51.114;13.906;2023-04-08T13:22:14;28.98;;;20.25;;
33367;SDS011;19724;51.114;13.906;2023-04-08T13:24:40;25.92;;;18.58;;
33367;SDS011;19724;51.114;13.906;2023-04-08T13:27:06;29.30;;;20.83;;
33367;SDS011;19724;51.114;13.906;2023-04-08T13:29:31;31.85;;;20.20;;
33367;SDS011;19724;51.114;13.906;2023-04-08T13:31:57;31.42;;;20.50;;
33367;SDS011;19724;51.114;13.906;2023-04-08T13:34:22;32.47;;;20.52;;
33367;SDS011;19724;51.114;13.906;2023-04-08T13:36:48;29.52;;;19.90;;
33367;SDS011;19724;51.114;13.906;2023-04-08T13:39:13;27.60;;;17.88;;
33367;SDS011;19724;51.114;13.906;2023-04-08T13:41:39;27.30;;;18.98;;
33367;SDS011;19724;51.114;13.906;2023-04-08T13:44:04;25.27;;;18.55;;
33367;SDS011;19724;51.114;13.906;2023-04-08T13:46:30;29.60;;;20.40;;
33367;SDS011;19724;51.114;13.906;2023-04-08T13:48:56;28.98;;;18.80;;
33367;SDS011;19724;51.114;13.906;2023-04-08T13:51:21;28.17;;;18.92;;
33367;SDS011;19724;51.114;13.906;2023-04-08T13:53:47;27.52;;;18.55;;
33367;SDS011;19724;51.114;13.906;2023-04-08T13:56:12;28.45;;;19.48;;
33367;SDS011;19724;51.114;13.906;2023-04-08T13:58:38;29.58;;;19.15;;
33367;SDS011;19724;51.114;13.906;2023-04-08T14:01:03;30.02;;;20.33;;
33367;SDS011;19724;51.114;13.906;2023-04-08T14:03:29;28.77;;;18.55;;
33367;SDS011;19724;51.114;13.906;2023-04-08T14:05:55;25.17;;;17.63;;
33367;SDS011;19724;51.114;13.906;2023-04-08T14:08:21;27.50;;;18.48;;
33367;SDS011;19724;51.114;13.906;2023-04-08T14:10:50;26.83;;;18.17;;
33367;SDS011;19724;51.114;13.906;2023-04-08T14:13:16;27.63;;;18.92;;
33367;SDS011;19724;51.114;13.906;2023-04-08T14:15:41;23.92;;;17.27;;
33367;SDS011;19724;51.114;13.906;2023-04-08T14:18:06;28.05;;;18.20;;